sensor_id;sensor_type;location;lat;lon;timestamp;P1;durP1;ratioP1;P2;durP2;ratioP2
69334;SDS011;56477;52.742;15.242;2022-07-26T00:02:21;17.25;;;12.43;;
69334;SDS011;56477;52.742;15.242;2022-07-26T00:04:47;18.98;;;11.88;;
69334;SDS011;56477;52.742;15.242;2022-07-26T00:07:13;20.10;;;12.00;;
69334;SDS011;56477;52.742;15.242;2022-07-26T00:09:39;16.42;;;11.02;;
69334;SDS011;56477;52.742;15.242;2022-07-26T00:12:06;19.15;;;11.73;;
69334;SDS011;56477;52.742;15.242;2022-07-26T00:14:32;16.88;;;11.38;;
69334;SDS011;56477;52.742;15.242;2022-07-26T00:16:58;20.73;;;12.40;;
69334;SDS011;56477;52.742;15.242;2022-07-26T00:19:24;18.88;;;11.63;;
69334;SDS011;56477;52.742;15.242;2022-07-26T00:21:50;18.05;;;10.65;;
69334;SDS011;56477;52.742;15.242;2022-07-26T00:24:36;14.50;;;9.95;;
69334;SDS011;56477;52.742;15.242;2022-07-26T00:27:01;14.00;;;8.50;;
69334;SDS011;56477;52.742;15.242;2022-07-26T00:29:27;12.48;;;8.65;;
69334;SDS011;56477;52.742;15.242;2022-07-26T00:31:54;13.00;;;7.35;;
69334;SDS011;56477;52.742;15.242;2022-07-26T00:34:19;11.07;;;7.50;;
69334;SDS011;56477;52.742;15.242;2022-07-26T00:36:45;10.35;;;7.05;;
69334;SDS011;56477;52.742;15.242;2022-07-26T00:39:11;11.95;;;7.50;;
69334;SDS011;56477;52.742;15.242;2022-07-26T00:41:37;9.97;;;6.90;;
69334;SDS011;56477;52.742;15.242;2022-07-26T00:44:03;10.55;;;6.60;;
69334;SDS011;56477;52.742;15.242;2022-07-26T00:46:29;10.10;;;6.40;;
69334;SDS011;56477;52.742;15.242;2022-07-26T00:48:55;9.63;;;6.60;;
69334;SDS011;56477;52.742;15.242;2022-07-26T00:51:22;12.87;;;7.07;;
69334;SDS011;56477;52.742;15.242;2022-07-26T00:53:48;10.88;;;6.05;;
69334;SDS011;56477;52.742;15.242;2022-07-26T00:56:15;8.07;;;5.82;;
69334;SDS011;56477;52.742;15.242;2022-07-26T00:58:42;8.45;;;5.15;;
69334;SDS011;56477;52.742;15.242;2022-07-26T01:01:08;9.37;;;5.53;;
69334;SDS011;56477;52.742;15.242;2022-07-26T01:03:34;9.75;;;5.78;;
69334;SDS011;56477;52.742;15.242;2022-07-26T01:06:00;10.15;;;5.18;;
69334;SDS011;56477;52.742;15.242;2022-07-26T01:08:26;10.27;;;5.60;;
69334;SDS011;56477;52.742;15.242;2022-07-26T01:10:52;7.77;;;4.70;;
69334;SDS011;56477;52.742;15.242;2022-07-26T01:13:19;8.25;;;5.15;;
69334;SDS011;56477;52.742;15.242;2022-07-26T01:15:46;6.95;;;5.05;;
69334;SDS011;56477;52.742;15.242;2022-07-26T01:18:11;8.13;;;4.53;;
69334;SDS011;56477;52.742;15.242;2022-07-26T01:20:37;9.40;;;4.83;;
69334;SDS011;56477;52.742;15.242;2022-07-26T01:23:04;10.30;;;4.70;;
69334;SDS011;56477;52.742;15.242;2022-07-26T01:25:32;6.28;;;4.05;;
69334;SDS011;56477;52.742;15.242;2022-07-26T01:27:59;8.55;;;4.75;;
69334;SDS011;56477;52.742;15.242;2022-07-26T01:30:26;6.10;;;3.72;;
69334;SDS011;56477;52.742;15.242;2022-07-26T01:32:51;7.03;;;4.53;;
69334;SDS011;56477;52.742;15.242;2022-07-26T01:35:17;7.05;;;4.80;;
69334;SDS011;56477;52.742;15.242;2022-07-26T01:37:43;8.23;;;5.15;;
69334;SDS011;56477;52.742;15.242;2022-07-26T01:40:09;9.97;;;4.90;;
69334;SDS011;56477;52.742;15.242;2022-07-26T01:42:36;8.85;;;4.85;;
69334;SDS011;56477;52.742;15.242;2022-07-26T01:45:06;10.15;;;5.28;;
69334;SDS011;56477;52.742;15.242;2022-07-26T01:47:36;11.60;;;5.70;;
69334;SDS011;56477;52.742;15.242;2022-07-26T01:50:03;11.00;;;5.20;;
69334;SDS011;56477;52.742;15.242;2022-07-26T01:52:30;10.80;;;5.67;;
69334;SDS011;56477;52.742;15.242;2022-07-26T01:54:56;9.13;;;5.55;;
69334;SDS011;56477;52.742;15.242;2022-07-26T01:57:22;11.95;;;5.97;;
69334;SDS011;56477;52.742;15.242;2022-07-26T01:59:48;12.20;;;5.28;;
69334;SDS011;56477;52.742;15.242;2022-07-26T02:02:13;11.27;;;5.10;;
69334;SDS011;56477;52.742;15.242;2022-07-26T02:04:39;11.65;;;5.45;;
69334;SDS011;56477;52.742;15.242;2022-07-26T02:07:27;11.18;;;4.80;;
69334;SDS011;56477;52.742;15.242;2022-07-26T02:09:54;10.13;;;4.90;;
69334;SDS011;56477;52.742;15.242;2022-07-26T02:12:20;12.68;;;5.75;;
69334;SDS011;56477;52.742;15.242;2022-07-26T02:14:47;8.25;;;4.70;;
69334;SDS011;56477;52.742;15.242;2022-07-26T02:17:13;10.57;;;4.72;;
69334;SDS011;56477;52.742;15.242;2022-07-26T02:19:39;10.88;;;5.22;;
69334;SDS011;56477;52.742;15.242;2022-07-26T02:22:05;8.40;;;4.67;;
69334;SDS011;56477;52.742;15.242;2022-07-26T02:24:31;15.43;;;5.18;;
69334;SDS011;56477;52.742;15.242;2022-07-26T02:26:58;10.35;;;4.43;;
69334;SDS011;56477;52.742;15.242;2022-07-26T02:29:25;11.15;;;4.72;;
69334;SDS011;56477;52.742;15.242;2022-07-26T02:31:51;8.38;;;4.68;;
69334;SDS011;56477;52.742;15.242;2022-07-26T02:34:18;11.97;;;5.00;;
69334;SDS011;56477;52.742;15.242;2022-07-26T02:36:45;10.65;;;4.38;;
69334;SDS011;56477;52.742;15.242;2022-07-26T02:39:11;10.77;;;4.95;;
69334;SDS011;56477;52.742;15.242;2022-07-26T02:41:37;12.77;;;5.68;;
69334;SDS011;56477;52.742;15.242;2022-07-26T02:44:03;10.15;;;4.75;;
69334;SDS011;56477;52.742;15.242;2022-07-26T02:46:30;9.60;;;4.77;;
69334;SDS011;56477;52.742;15.242;2022-07-26T02:48:56;9.77;;;5.38;;
69334;SDS011;56477;52.742;15.242;2022-07-26T02:51:24;13.40;;;5.32;;
69334;SDS011;56477;52.742;15.242;2022-07-26T02:53:49;10.63;;;5.77;;
69334;SDS011;56477;52.742;15.242;2022-07-26T02:56:15;10.67;;;5.13;;
69334;SDS011;56477;52.742;15.242;2022-07-26T02:58:41;10.68;;;5.25;;
69334;SDS011;56477;52.742;15.242;2022-07-26T03:01:07;9.77;;;4.82;;
69334;SDS011;56477;52.742;15.242;2022-07-26T03:03:33;8.80;;;4.63;;
69334;SDS011;56477;52.742;15.242;2022-07-26T03:05:59;10.75;;;5.18;;
69334;SDS011;56477;52.742;15.242;2022-07-26T03:08:25;10.93;;;6.00;;
69334;SDS011;56477;52.742;15.242;2022-07-26T03:10:51;10.15;;;5.30;;
69334;SDS011;56477;52.742;15.242;2022-07-26T03:13:17;9.75;;;4.95;;
69334;SDS011;56477;52.742;15.242;2022-07-26T03:15:43;9.60;;;6.10;;
69334;SDS011;56477;52.742;15.242;2022-07-26T03:18:09;13.57;;;5.63;;
69334;SDS011;56477;52.742;15.242;2022-07-26T03:20:35;10.25;;;5.80;;
69334;SDS011;56477;52.742;15.242;2022-07-26T03:23:01;11.77;;;6.40;;
69334;SDS011;56477;52.742;15.242;2022-07-26T03:25:26;9.52;;;5.25;;
69334;SDS011;56477;52.742;15.242;2022-07-26T03:27:53;11.90;;;6.40;;
69334;SDS011;56477;52.742;15.242;2022-07-26T03:30:21;10.10;;;6.60;;
69334;SDS011;56477;52.742;15.242;2022-07-26T03:32:48;14.25;;;6.35;;
69334;SDS011;56477;52.742;15.242;2022-07-26T03:35:14;10.53;;;6.00;;
69334;SDS011;56477;52.742;15.242;2022-07-26T03:37:40;13.85;;;6.63;;
69334;SDS011;56477;52.742;15.242;2022-07-26T03:40:06;11.15;;;6.00;;
69334;SDS011;56477;52.742;15.242;2022-07-26T03:42:33;12.85;;;6.60;;
69334;SDS011;56477;52.742;15.242;2022-07-26T03:45:00;12.27;;;6.20;;
69334;SDS011;56477;52.742;15.242;2022-07-26T03:47:26;13.00;;;7.07;;
69334;SDS011;56477;52.742;15.242;2022-07-26T03:49:52;11.60;;;6.55;;
69334;SDS011;56477;52.742;15.242;2022-07-26T03:52:18;10.30;;;5.95;;
69334;SDS011;56477;52.742;15.242;2022-07-26T03:54:44;14.27;;;6.30;;
69334;SDS011;56477;52.742;15.242;2022-07-26T03:57:10;9.10;;;6.35;;
69334;SDS011;56477;52.742;15.242;2022-07-26T03:59:36;14.40;;;6.88;;
69334;SDS011;56477;52.742;15.242;2022-07-26T04:02:02;10.90;;;6.60;;
69334;SDS011;56477;52.742;15.242;2022-07-26T04:04:28;11.87;;;7.40;;
69334;SDS011;56477;52.742;15.242;2022-07-26T04:06:54;13.40;;;6.88;;
69334;SDS011;56477;52.742;15.242;2022-07-26T04:09:21;13.82;;;7.05;;
69334;SDS011;56477;52.742;15.242;2022-07-26T04:11:47;13.30;;;6.75;;
69334;SDS011;56477;52.742;15.242;2022-07-26T04:14:13;10.97;;;6.70;;
69334;SDS011;56477;52.742;15.242;2022-07-26T04:16:39;13.38;;;6.78;;
69334;SDS011;56477;52.742;15.242;2022-07-26T04:19:05;13.50;;;7.43;;
69334;SDS011;56477;52.742;15.242;2022-07-26T04:21:31;12.43;;;6.82;;
69334;SDS011;56477;52.742;15.242;2022-07-26T04:23:57;11.97;;;6.80;;
69334;SDS011;56477;52.742;15.242;2022-07-26T04:26:23;11.88;;;6.75;;
69334;SDS011;56477;52.742;15.242;2022-07-26T04:28:49;12.65;;;6.72;;
69334;SDS011;56477;52.742;15.242;2022-07-26T04:31:15;12.00;;;6.45;;
69334;SDS011;56477;52.742;15.242;2022-07-26T04:33:41;14.03;;;6.90;;
69334;SDS011;56477;52.742;15.242;2022-07-26T04:36:07;12.20;;;6.07;;
69334;SDS011;56477;52.742;15.242;2022-07-26T04:38:33;13.35;;;6.88;;
69334;SDS011;56477;52.742;15.242;2022-07-26T04:40:59;13.35;;;7.20;;
69334;SDS011;56477;52.742;15.242;2022-07-26T04:43:25;12.87;;;7.50;;
69334;SDS011;56477;52.742;15.242;2022-07-26T04:45:51;16.60;;;7.53;;
69334;SDS011;56477;52.742;15.242;2022-07-26T04:48:17;14.45;;;7.25;;
69334;SDS011;56477;52.742;15.242;2022-07-26T04:50:43;11.23;;;6.80;;
69334;SDS011;56477;52.742;15.242;2022-07-26T04:53:09;12.57;;;6.28;;
69334;SDS011;56477;52.742;15.242;2022-07-26T04:55:39;11.55;;;6.20;;
69334;SDS011;56477;52.742;15.242;2022-07-26T04:58:05;12.13;;;6.95;;
69334;SDS011;56477;52.742;15.242;2022-07-26T05:00:31;8.75;;;5.50;;
69334;SDS011;56477;52.742;15.242;2022-07-26T05:02:58;9.80;;;5.27;;
69334;SDS011;56477;52.742;15.242;2022-07-26T05:05:25;11.43;;;5.90;;
69334;SDS011;56477;52.742;15.242;2022-07-26T05:07:54;9.52;;;5.53;;
69334;SDS011;56477;52.742;15.242;2022-07-26T05:10:26;10.18;;;5.97;;
69334;SDS011;56477;52.742;15.242;2022-07-26T05:12:54;11.05;;;5.88;;
69334;SDS011;56477;52.742;15.242;2022-07-26T05:15:20;12.47;;;6.30;;
69334;SDS011;56477;52.742;15.242;2022-07-26T05:17:47;10.25;;;6.38;;
69334;SDS011;56477;52.742;15.242;2022-07-26T05:20:13;10.10;;;5.20;;
69334;SDS011;56477;52.742;15.242;2022-07-26T05:22:40;11.57;;;6.18;;
69334;SDS011;56477;52.742;15.242;2022-07-26T05:25:07;12.70;;;5.50;;
69334;SDS011;56477;52.742;15.242;2022-07-26T05:27:33;11.90;;;6.63;;
69334;SDS011;56477;52.742;15.242;2022-07-26T05:29:59;10.52;;;5.88;;
69334;SDS011;56477;52.742;15.242;2022-07-26T05:32:25;10.68;;;6.60;;
69334;SDS011;56477;52.742;15.242;2022-07-26T05:34:52;8.45;;;4.60;;
69334;SDS011;56477;52.742;15.242;2022-07-26T05:37:18;7.72;;;5.28;;
69334;SDS011;56477;52.742;15.242;2022-07-26T05:39:44;10.37;;;5.97;;
69334;SDS011;56477;52.742;15.242;2022-07-26T05:42:10;11.65;;;6.05;;
69334;SDS011;56477;52.742;15.242;2022-07-26T05:44:36;11.35;;;6.05;;
69334;SDS011;56477;52.742;15.242;2022-07-26T05:47:02;9.57;;;6.53;;
69334;SDS011;56477;52.742;15.242;2022-07-26T05:49:28;10.73;;;6.55;;
69334;SDS011;56477;52.742;15.242;2022-07-26T05:51:54;11.85;;;6.53;;
69334;SDS011;56477;52.742;15.242;2022-07-26T05:54:20;13.82;;;6.72;;
69334;SDS011;56477;52.742;15.242;2022-07-26T05:56:46;12.40;;;7.03;;
69334;SDS011;56477;52.742;15.242;2022-07-26T05:59:12;12.05;;;7.82;;
69334;SDS011;56477;52.742;15.242;2022-07-26T06:01:38;13.40;;;7.85;;
69334;SDS011;56477;52.742;15.242;2022-07-26T06:04:04;13.50;;;8.37;;
69334;SDS011;56477;52.742;15.242;2022-07-26T06:06:31;16.05;;;7.85;;
69334;SDS011;56477;52.742;15.242;2022-07-26T06:08:57;13.32;;;7.72;;
69334;SDS011;56477;52.742;15.242;2022-07-26T06:11:22;14.52;;;8.00;;
69334;SDS011;56477;52.742;15.242;2022-07-26T06:13:48;9.33;;;5.30;;
69334;SDS011;56477;52.742;15.242;2022-07-26T06:16:14;13.20;;;7.65;;
69334;SDS011;56477;52.742;15.242;2022-07-26T06:18:40;12.70;;;7.60;;
69334;SDS011;56477;52.742;15.242;2022-07-26T06:21:06;15.60;;;8.37;;
69334;SDS011;56477;52.742;15.242;2022-07-26T06:23:33;15.48;;;7.25;;
69334;SDS011;56477;52.742;15.242;2022-07-26T06:25:58;8.10;;;4.75;;
69334;SDS011;56477;52.742;15.242;2022-07-26T06:28:24;11.60;;;7.50;;
69334;SDS011;56477;52.742;15.242;2022-07-26T06:30:50;17.83;;;8.93;;
69334;SDS011;56477;52.742;15.242;2022-07-26T06:33:16;9.93;;;5.47;;
69334;SDS011;56477;52.742;15.242;2022-07-26T06:35:42;11.05;;;7.30;;
69334;SDS011;56477;52.742;15.242;2022-07-26T06:38:08;11.77;;;5.63;;
69334;SDS011;56477;52.742;15.242;2022-07-26T06:40:34;11.77;;;7.07;;
69334;SDS011;56477;52.742;15.242;2022-07-26T06:43:00;12.63;;;6.68;;
69334;SDS011;56477;52.742;15.242;2022-07-26T06:45:27;14.40;;;9.80;;
69334;SDS011;56477;52.742;15.242;2022-07-26T06:47:54;19.25;;;10.25;;
69334;SDS011;56477;52.742;15.242;2022-07-26T06:50:20;17.33;;;9.50;;
69334;SDS011;56477;52.742;15.242;2022-07-26T06:52:47;14.05;;;9.38;;
69334;SDS011;56477;52.742;15.242;2022-07-26T06:55:13;19.55;;;9.60;;
69334;SDS011;56477;52.742;15.242;2022-07-26T06:57:39;13.77;;;8.90;;
69334;SDS011;56477;52.742;15.242;2022-07-26T07:00:06;14.00;;;7.40;;
69334;SDS011;56477;52.742;15.242;2022-07-26T07:02:33;14.10;;;8.02;;
69334;SDS011;56477;52.742;15.242;2022-07-26T07:05:00;13.77;;;8.00;;
69334;SDS011;56477;52.742;15.242;2022-07-26T07:07:26;16.13;;;8.23;;
69334;SDS011;56477;52.742;15.242;2022-07-26T07:09:52;10.57;;;6.43;;
69334;SDS011;56477;52.742;15.242;2022-07-26T07:12:18;10.63;;;6.30;;
69334;SDS011;56477;52.742;15.242;2022-07-26T07:14:44;10.25;;;6.03;;
69334;SDS011;56477;52.742;15.242;2022-07-26T07:17:10;13.80;;;6.72;;
69334;SDS011;56477;52.742;15.242;2022-07-26T07:19:36;9.20;;;5.40;;
69334;SDS011;56477;52.742;15.242;2022-07-26T07:22:03;13.73;;;5.50;;
69334;SDS011;56477;52.742;15.242;2022-07-26T07:24:30;8.73;;;5.15;;
69334;SDS011;56477;52.742;15.242;2022-07-26T07:26:56;8.93;;;5.22;;
69334;SDS011;56477;52.742;15.242;2022-07-26T07:29:24;7.20;;;4.70;;
69334;SDS011;56477;52.742;15.242;2022-07-26T07:31:50;6.90;;;4.65;;
69334;SDS011;56477;52.742;15.242;2022-07-26T07:34:16;6.40;;;3.97;;
69334;SDS011;56477;52.742;15.242;2022-07-26T07:36:43;7.93;;;4.45;;
69334;SDS011;56477;52.742;15.242;2022-07-26T07:39:08;7.27;;;4.20;;
69334;SDS011;56477;52.742;15.242;2022-07-26T07:41:35;10.40;;;5.18;;
69334;SDS011;56477;52.742;15.242;2022-07-26T07:44:03;7.28;;;3.28;;
69334;SDS011;56477;52.742;15.242;2022-07-26T07:46:30;9.18;;;3.88;;
69334;SDS011;56477;52.742;15.242;2022-07-26T07:48:55;7.93;;;4.00;;
69334;SDS011;56477;52.742;15.242;2022-07-26T07:51:27;7.93;;;3.67;;
69334;SDS011;56477;52.742;15.242;2022-07-26T07:53:53;7.15;;;3.85;;
69334;SDS011;56477;52.742;15.242;2022-07-26T07:56:19;8.25;;;3.50;;
69334;SDS011;56477;52.742;15.242;2022-07-26T07:58:45;6.45;;;3.70;;
69334;SDS011;56477;52.742;15.242;2022-07-26T08:01:11;7.07;;;3.80;;
69334;SDS011;56477;52.742;15.242;2022-07-26T08:03:37;9.63;;;4.00;;
69334;SDS011;56477;52.742;15.242;2022-07-26T08:06:04;6.07;;;3.22;;
69334;SDS011;56477;52.742;15.242;2022-07-26T08:08:31;8.27;;;3.65;;
69334;SDS011;56477;52.742;15.242;2022-07-26T08:10:58;8.35;;;3.15;;
69334;SDS011;56477;52.742;15.242;2022-07-26T08:13:24;4.38;;;2.60;;
69334;SDS011;56477;52.742;15.242;2022-07-26T08:15:50;4.70;;;2.20;;
69334;SDS011;56477;52.742;15.242;2022-07-26T08:18:16;5.32;;;3.00;;
69334;SDS011;56477;52.742;15.242;2022-07-26T08:20:43;4.38;;;2.90;;
69334;SDS011;56477;52.742;15.242;2022-07-26T08:23:08;5.27;;;2.57;;
69334;SDS011;56477;52.742;15.242;2022-07-26T08:25:34;3.20;;;2.17;;
69334;SDS011;56477;52.742;15.242;2022-07-26T08:28:00;8.15;;;2.67;;
69334;SDS011;56477;52.742;15.242;2022-07-26T08:30:26;5.85;;;2.15;;
69334;SDS011;56477;52.742;15.242;2022-07-26T08:32:52;7.50;;;2.63;;
69334;SDS011;56477;52.742;15.242;2022-07-26T08:35:18;5.95;;;2.13;;
69334;SDS011;56477;52.742;15.242;2022-07-26T08:37:45;5.07;;;1.90;;
69334;SDS011;56477;52.742;15.242;2022-07-26T08:40:11;5.25;;;2.10;;
69334;SDS011;56477;52.742;15.242;2022-07-26T08:42:38;4.30;;;1.80;;
69334;SDS011;56477;52.742;15.242;2022-07-26T08:45:04;3.40;;;1.87;;
69334;SDS011;56477;52.742;15.242;2022-07-26T08:47:30;2.67;;;1.67;;
69334;SDS011;56477;52.742;15.242;2022-07-26T08:49:56;5.13;;;1.65;;
69334;SDS011;56477;52.742;15.242;2022-07-26T08:52:22;5.57;;;2.30;;
69334;SDS011;56477;52.742;15.242;2022-07-26T08:54:49;5.63;;;2.40;;
69334;SDS011;56477;52.742;15.242;2022-07-26T08:57:16;3.75;;;1.92;;
69334;SDS011;56477;52.742;15.242;2022-07-26T08:59:43;2.75;;;1.33;;
69334;SDS011;56477;52.742;15.242;2022-07-26T09:02:12;3.00;;;2.10;;
69334;SDS011;56477;52.742;15.242;2022-07-26T09:04:39;3.63;;;1.80;;
69334;SDS011;56477;52.742;15.242;2022-07-26T09:07:16;2.42;;;1.77;;
69334;SDS011;56477;52.742;15.242;2022-07-26T09:12:30;3.95;;;1.63;;
69334;SDS011;56477;52.742;15.242;2022-07-26T09:14:57;2.70;;;1.60;;
69334;SDS011;56477;52.742;15.242;2022-07-26T09:17:25;4.40;;;1.80;;
69334;SDS011;56477;52.742;15.242;2022-07-26T09:20:11;2.92;;;1.42;;
69334;SDS011;56477;52.742;15.242;2022-07-26T09:25:30;5.32;;;1.92;;
69334;SDS011;56477;52.742;15.242;2022-07-26T09:27:58;3.10;;;1.55;;
69334;SDS011;56477;52.742;15.242;2022-07-26T09:30:26;5.53;;;1.50;;
69334;SDS011;56477;52.742;15.242;2022-07-26T09:32:55;3.42;;;1.50;;
69334;SDS011;56477;52.742;15.242;2022-07-26T09:35:26;3.00;;;1.85;;
69334;SDS011;56477;52.742;15.242;2022-07-26T09:37:53;6.63;;;2.20;;
69334;SDS011;56477;52.742;15.242;2022-07-26T09:40:19;4.25;;;1.55;;
69334;SDS011;56477;52.742;15.242;2022-07-26T09:42:55;2.63;;;1.40;;
69334;SDS011;56477;52.742;15.242;2022-07-26T09:45:23;4.55;;;2.20;;
69334;SDS011;56477;52.742;15.242;2022-07-26T09:47:49;4.97;;;1.65;;
69334;SDS011;56477;52.742;15.242;2022-07-26T09:50:17;4.85;;;1.85;;
69334;SDS011;56477;52.742;15.242;2022-07-26T09:55:33;5.07;;;2.08;;
69334;SDS011;56477;52.742;15.242;2022-07-26T09:58:01;3.72;;;2.13;;
69334;SDS011;56477;52.742;15.242;2022-07-26T10:00:31;7.47;;;1.98;;
69334;SDS011;56477;52.742;15.242;2022-07-26T10:02:57;4.97;;;2.10;;
69334;SDS011;56477;52.742;15.242;2022-07-26T10:05:23;4.37;;;1.60;;
69334;SDS011;56477;52.742;15.242;2022-07-26T10:07:50;3.47;;;1.70;;
69334;SDS011;56477;52.742;15.242;2022-07-26T10:10:19;4.50;;;1.80;;
69334;SDS011;56477;52.742;15.242;2022-07-26T10:12:50;7.15;;;2.17;;
69334;SDS011;56477;52.742;15.242;2022-07-26T10:18:10;5.47;;;2.22;;
69334;SDS011;56477;52.742;15.242;2022-07-26T10:20:56;3.77;;;2.20;;
69334;SDS011;56477;52.742;15.242;2022-07-26T10:26:00;1.88;;;1.45;;
69334;SDS011;56477;52.742;15.242;2022-07-26T10:28:29;3.88;;;1.50;;
69334;SDS011;56477;52.742;15.242;2022-07-26T10:31:21;2.80;;;1.70;;
69334;SDS011;56477;52.742;15.242;2022-07-26T10:33:50;3.00;;;1.23;;
69334;SDS011;56477;52.742;15.242;2022-07-26T10:36:21;4.27;;;1.37;;
69334;SDS011;56477;52.742;15.242;2022-07-26T10:38:57;2.57;;;1.30;;
69334;SDS011;56477;52.742;15.242;2022-07-26T10:41:30;2.40;;;1.60;;
69334;SDS011;56477;52.742;15.242;2022-07-26T10:44:18;2.83;;;1.80;;
69334;SDS011;56477;52.742;15.242;2022-07-26T10:46:56;3.67;;;1.45;;
69334;SDS011;56477;52.742;15.242;2022-07-26T10:49:35;4.00;;;1.75;;
69334;SDS011;56477;52.742;15.242;2022-07-26T10:52:07;2.30;;;1.60;;
69334;SDS011;56477;52.742;15.242;2022-07-26T10:59:49;4.30;;;1.33;;
69334;SDS011;56477;52.742;15.242;2022-07-26T11:02:21;3.15;;;1.58;;
69334;SDS011;56477;52.742;15.242;2022-07-26T11:10:23;4.25;;;1.30;;
69334;SDS011;56477;52.742;15.242;2022-07-26T11:13:01;2.67;;;1.33;;
69334;SDS011;56477;52.742;15.242;2022-07-26T11:15:27;5.60;;;1.65;;
69334;SDS011;56477;52.742;15.242;2022-07-26T11:20:39;2.38;;;0.82;;
69334;SDS011;56477;52.742;15.242;2022-07-26T11:28:29;3.53;;;2.03;;
69334;SDS011;56477;52.742;15.242;2022-07-26T11:31:07;3.17;;;1.77;;
69334;SDS011;56477;52.742;15.242;2022-07-26T11:33:36;3.20;;;1.70;;
69334;SDS011;56477;52.742;15.242;2022-07-26T11:36:03;3.47;;;1.67;;
69334;SDS011;56477;52.742;15.242;2022-07-26T11:41:21;3.08;;;1.40;;
69334;SDS011;56477;52.742;15.242;2022-07-26T11:43:50;4.57;;;1.90;;
69334;SDS011;56477;52.742;15.242;2022-07-26T11:46:17;2.90;;;1.52;;
69334;SDS011;56477;52.742;15.242;2022-07-26T11:48:47;2.92;;;2.30;;
69334;SDS011;56477;52.742;15.242;2022-07-26T11:53:44;3.42;;;2.03;;
69334;SDS011;56477;52.742;15.242;2022-07-26T11:58:40;3.37;;;1.60;;
69334;SDS011;56477;52.742;15.242;2022-07-26T12:01:07;2.37;;;1.30;;
69334;SDS011;56477;52.742;15.242;2022-07-26T12:03:35;2.70;;;1.10;;
69334;SDS011;56477;52.742;15.242;2022-07-26T12:06:12;4.55;;;1.75;;
69334;SDS011;56477;52.742;15.242;2022-07-26T12:08:44;4.45;;;2.10;;
69334;SDS011;56477;52.742;15.242;2022-07-26T12:11:12;4.13;;;1.60;;
69334;SDS011;56477;52.742;15.242;2022-07-26T12:16:37;4.13;;;1.35;;
69334;SDS011;56477;52.742;15.242;2022-07-26T12:21:49;3.63;;;1.67;;
69334;SDS011;56477;52.742;15.242;2022-07-26T12:29:44;5.25;;;1.63;;
69334;SDS011;56477;52.742;15.242;2022-07-26T12:35:05;4.90;;;1.73;;
69334;SDS011;56477;52.742;15.242;2022-07-26T12:37:33;2.87;;;1.40;;
69334;SDS011;56477;52.742;15.242;2022-07-26T12:40:04;4.28;;;1.60;;
69334;SDS011;56477;52.742;15.242;2022-07-26T12:42:32;2.95;;;1.20;;
69334;SDS011;56477;52.742;15.242;2022-07-26T12:45:00;1.88;;;1.05;;
69334;SDS011;56477;52.742;15.242;2022-07-26T12:47:27;2.95;;;1.38;;
69334;SDS011;56477;52.742;15.242;2022-07-26T12:49:53;4.50;;;1.43;;
69334;SDS011;56477;52.742;15.242;2022-07-26T12:52:20;4.30;;;2.22;;
69334;SDS011;56477;52.742;15.242;2022-07-26T12:54:48;3.22;;;1.77;;
69334;SDS011;56477;52.742;15.242;2022-07-26T12:57:15;3.47;;;1.65;;
69334;SDS011;56477;52.742;15.242;2022-07-26T12:59:42;3.13;;;1.57;;
69334;SDS011;56477;52.742;15.242;2022-07-26T13:02:08;2.67;;;1.20;;
69334;SDS011;56477;52.742;15.242;2022-07-26T13:04:34;2.33;;;1.17;;
69334;SDS011;56477;52.742;15.242;2022-07-26T13:07:00;1.80;;;1.30;;
69334;SDS011;56477;52.742;15.242;2022-07-26T13:09:26;4.10;;;1.20;;
69334;SDS011;56477;52.742;15.242;2022-07-26T13:11:52;2.15;;;0.93;;
69334;SDS011;56477;52.742;15.242;2022-07-26T13:14:19;2.20;;;0.80;;
69334;SDS011;56477;52.742;15.242;2022-07-26T13:16:44;3.47;;;1.20;;
69334;SDS011;56477;52.742;15.242;2022-07-26T13:19:10;1.75;;;0.90;;
69334;SDS011;56477;52.742;15.242;2022-07-26T13:21:37;3.13;;;1.13;;
69334;SDS011;56477;52.742;15.242;2022-07-26T13:24:03;2.30;;;0.90;;
69334;SDS011;56477;52.742;15.242;2022-07-26T13:26:29;2.50;;;1.13;;
69334;SDS011;56477;52.742;15.242;2022-07-26T13:28:55;2.00;;;1.00;;
69334;SDS011;56477;52.742;15.242;2022-07-26T13:31:22;3.58;;;1.20;;
69334;SDS011;56477;52.742;15.242;2022-07-26T13:33:48;2.37;;;1.03;;
69334;SDS011;56477;52.742;15.242;2022-07-26T13:36:14;4.45;;;1.00;;
69334;SDS011;56477;52.742;15.242;2022-07-26T13:38:39;2.05;;;1.08;;
69334;SDS011;56477;52.742;15.242;2022-07-26T13:41:07;2.60;;;0.98;;
69334;SDS011;56477;52.742;15.242;2022-07-26T13:43:33;3.40;;;1.48;;
69334;SDS011;56477;52.742;15.242;2022-07-26T13:46:00;2.60;;;1.20;;
69334;SDS011;56477;52.742;15.242;2022-07-26T13:48:26;4.10;;;1.20;;
69334;SDS011;56477;52.742;15.242;2022-07-26T13:50:53;5.28;;;1.50;;
69334;SDS011;56477;52.742;15.242;2022-07-26T13:53:19;3.13;;;1.50;;
69334;SDS011;56477;52.742;15.242;2022-07-26T13:55:45;5.05;;;1.88;;
69334;SDS011;56477;52.742;15.242;2022-07-26T13:58:11;3.85;;;1.83;;
69334;SDS011;56477;52.742;15.242;2022-07-26T14:00:38;4.47;;;1.40;;
69334;SDS011;56477;52.742;15.242;2022-07-26T14:03:04;4.05;;;1.70;;
69334;SDS011;56477;52.742;15.242;2022-07-26T14:05:31;3.05;;;1.20;;
69334;SDS011;56477;52.742;15.242;2022-07-26T14:07:56;3.15;;;1.60;;
69334;SDS011;56477;52.742;15.242;2022-07-26T14:10:23;7.90;;;2.13;;
69334;SDS011;56477;52.742;15.242;2022-07-26T14:12:49;3.53;;;1.38;;
69334;SDS011;56477;52.742;15.242;2022-07-26T14:15:15;3.80;;;2.03;;
69334;SDS011;56477;52.742;15.242;2022-07-26T14:17:41;7.05;;;3.47;;
69334;SDS011;56477;52.742;15.242;2022-07-26T14:20:10;7.87;;;2.53;;
69334;SDS011;56477;52.742;15.242;2022-07-26T14:22:35;7.53;;;3.72;;
69334;SDS011;56477;52.742;15.242;2022-07-26T14:25:01;9.75;;;4.00;;
69334;SDS011;56477;52.742;15.242;2022-07-26T14:27:27;6.43;;;3.20;;
69334;SDS011;56477;52.742;15.242;2022-07-26T14:29:53;6.73;;;3.93;;
69334;SDS011;56477;52.742;15.242;2022-07-26T14:32:19;8.35;;;3.85;;
69334;SDS011;56477;52.742;15.242;2022-07-26T14:34:45;8.13;;;3.92;;
69334;SDS011;56477;52.742;15.242;2022-07-26T14:37:11;7.20;;;3.73;;
69334;SDS011;56477;52.742;15.242;2022-07-26T14:39:37;8.18;;;4.38;;
69334;SDS011;56477;52.742;15.242;2022-07-26T14:42:03;7.03;;;3.63;;
69334;SDS011;56477;52.742;15.242;2022-07-26T14:44:29;6.97;;;3.57;;
69334;SDS011;56477;52.742;15.242;2022-07-26T14:46:54;6.65;;;3.47;;
69334;SDS011;56477;52.742;15.242;2022-07-26T14:49:21;7.32;;;3.75;;
69334;SDS011;56477;52.742;15.242;2022-07-26T14:51:46;8.55;;;4.00;;
69334;SDS011;56477;52.742;15.242;2022-07-26T14:54:13;6.33;;;3.53;;
69334;SDS011;56477;52.742;15.242;2022-07-26T14:56:40;6.40;;;3.58;;
69334;SDS011;56477;52.742;15.242;2022-07-26T14:59:06;5.22;;;2.70;;
69334;SDS011;56477;52.742;15.242;2022-07-26T15:01:32;4.27;;;2.47;;
69334;SDS011;56477;52.742;15.242;2022-07-26T15:03:58;3.20;;;2.35;;
69334;SDS011;56477;52.742;15.242;2022-07-26T15:06:24;4.60;;;2.33;;
69334;SDS011;56477;52.742;15.242;2022-07-26T15:08:50;5.22;;;2.50;;
69334;SDS011;56477;52.742;15.242;2022-07-26T15:11:16;4.40;;;2.50;;
69334;SDS011;56477;52.742;15.242;2022-07-26T15:13:42;6.38;;;2.70;;
69334;SDS011;56477;52.742;15.242;2022-07-26T15:16:08;4.93;;;2.80;;
69334;SDS011;56477;52.742;15.242;2022-07-26T15:18:34;4.70;;;2.88;;
69334;SDS011;56477;52.742;15.242;2022-07-26T15:21:00;4.47;;;2.58;;
69334;SDS011;56477;52.742;15.242;2022-07-26T15:23:27;5.37;;;2.63;;